Foxridge, Maryland
Current Conditions -  °F | °C
As of 6:54 AM on Monday 22 Dec 2014 (Local Time) from KBWI Reporting Station
Overcast Overcast  
Wind Chill: 25°   Ceiling: 4400
Heat Index: 31°   Visibility: 7mi
Dew Point: 24°   Wind: 6mph
Humidity: 76%   Direction: 50°NE
Pressure: 30.29"   Gusts: NA
Location:  39.3744°N, 76.8156°W
Report Text: KBWI 221154Z 05005KT 7SM OVC044 M01/M04 A3029 RMK AO2 SLP260 T10061044 11006 21050 55002
Loading
Personal Weather Stations






























Interactive Weather Map New forecast layout! Learn more

10-Day Weather Forecast

Advertisements
Track Severe Weather on mobile